Aviation Digital Data Service (ADDS)

Output produced by TAFs form (0031 UTC 24 May 2017)
found at http://aviationweather.gov/adds/tafs/
 
KDMN 232331Z 2400/2424 28018G28KT P6SM FEW120 
     FM240300 36008KT P6SM SKC 
     FM241200 VRB04KT P6SM SKC 
     FM242000 23015G25KT P6SM FEW250